sensor_id;sensor_type;location;lat;lon;timestamp;P1;durP1;ratioP1;P2;durP2;ratioP2
12348;SDS011;5974;42.710;27.258;2023-12-28T00:01:43;13.00;;;5.90;;
12348;SDS011;5974;42.710;27.258;2023-12-28T00:04:10;10.10;;;5.60;;
12348;SDS011;5974;42.710;27.258;2023-12-28T00:06:38;6.83;;;5.40;;
12348;SDS011;5974;42.710;27.258;2023-12-28T00:09:05;9.37;;;6.13;;
12348;SDS011;5974;42.710;27.258;2023-12-28T00:11:31;8.97;;;6.43;;
12348;SDS011;5974;42.710;27.258;2023-12-28T00:13:58;7.50;;;5.07;;
12348;SDS011;5974;42.710;27.258;2023-12-28T00:16:25;7.63;;;4.80;;
12348;SDS011;5974;42.710;27.258;2023-12-28T00:18:52;5.17;;;4.03;;
12348;SDS011;5974;42.710;27.258;2023-12-28T00:21:18;5.63;;;4.20;;
12348;SDS011;5974;42.710;27.258;2023-12-28T00:23:47;6.23;;;4.10;;
12348;SDS011;5974;42.710;27.258;2023-12-28T00:26:14;4.67;;;3.77;;
12348;SDS011;5974;42.710;27.258;2023-12-28T00:28:46;4.07;;;3.50;;
12348;SDS011;5974;42.710;27.258;2023-12-28T00:31:13;5.27;;;3.90;;
12348;SDS011;5974;42.710;27.258;2023-12-28T00:33:40;9.83;;;5.93;;
12348;SDS011;5974;42.710;27.258;2023-12-28T00:36:07;16.47;;;9.47;;
12348;SDS011;5974;42.710;27.258;2023-12-28T00:38:34;20.87;;;13.50;;
12348;SDS011;5974;42.710;27.258;2023-12-28T00:41:02;20.90;;;12.93;;
12348;SDS011;5974;42.710;27.258;2023-12-28T00:43:29;12.97;;;7.93;;
12348;SDS011;5974;42.710;27.258;2023-12-28T00:45:56;16.43;;;10.43;;
12348;SDS011;5974;42.710;27.258;2023-12-28T00:48:22;17.20;;;9.10;;
12348;SDS011;5974;42.710;27.258;2023-12-28T00:50:49;11.27;;;8.07;;
12348;SDS011;5974;42.710;27.258;2023-12-28T00:53:16;13.20;;;8.10;;
12348;SDS011;5974;42.710;27.258;2023-12-28T00:55:43;13.03;;;7.80;;
12348;SDS011;5974;42.710;27.258;2023-12-28T00:58:11;10.50;;;7.40;;
12348;SDS011;5974;42.710;27.258;2023-12-28T01:00:38;11.10;;;7.00;;
12348;SDS011;5974;42.710;27.258;2023-12-28T01:03:05;9.43;;;6.80;;
12348;SDS011;5974;42.710;27.258;2023-12-28T01:05:31;10.77;;;7.03;;
12348;SDS011;5974;42.710;27.258;2023-12-28T01:07:58;12.70;;;7.30;;
12348;SDS011;5974;42.710;27.258;2023-12-28T01:10:25;9.87;;;6.90;;
12348;SDS011;5974;42.710;27.258;2023-12-28T01:12:52;13.37;;;7.67;;
12348;SDS011;5974;42.710;27.258;2023-12-28T01:15:20;10.80;;;7.03;;
12348;SDS011;5974;42.710;27.258;2023-12-28T01:17:47;9.67;;;6.73;;
12348;SDS011;5974;42.710;27.258;2023-12-28T01:20:14;9.73;;;6.13;;
12348;SDS011;5974;42.710;27.258;2023-12-28T01:22:40;10.17;;;7.03;;
12348;SDS011;5974;42.710;27.258;2023-12-28T01:25:07;9.87;;;6.87;;
12348;SDS011;5974;42.710;27.258;2023-12-28T01:27:34;9.93;;;7.40;;
12348;SDS011;5974;42.710;27.258;2023-12-28T01:30:01;11.50;;;7.03;;
12348;SDS011;5974;42.710;27.258;2023-12-28T01:32:29;12.63;;;7.13;;
12348;SDS011;5974;42.710;27.258;2023-12-28T01:34:56;10.60;;;7.00;;
12348;SDS011;5974;42.710;27.258;2023-12-28T01:37:23;10.23;;;7.00;;
12348;SDS011;5974;42.710;27.258;2023-12-28T01:39:49;11.77;;;7.67;;
12348;SDS011;5974;42.710;27.258;2023-12-28T01:42:16;11.00;;;7.20;;
12348;SDS011;5974;42.710;27.258;2023-12-28T01:44:43;11.63;;;7.00;;
12348;SDS011;5974;42.710;27.258;2023-12-28T01:47:10;7.73;;;5.70;;
12348;SDS011;5974;42.710;27.258;2023-12-28T01:49:38;11.87;;;6.87;;
12348;SDS011;5974;42.710;27.258;2023-12-28T01:52:05;12.47;;;6.67;;
12348;SDS011;5974;42.710;27.258;2023-12-28T01:54:33;7.67;;;5.27;;
12348;SDS011;5974;42.710;27.258;2023-12-28T01:57:01;7.10;;;5.13;;
12348;SDS011;5974;42.710;27.258;2023-12-28T01:59:30;7.33;;;5.67;;
12348;SDS011;5974;42.710;27.258;2023-12-28T02:01:57;7.57;;;4.70;;
12348;SDS011;5974;42.710;27.258;2023-12-28T02:04:24;6.77;;;4.43;;
12348;SDS011;5974;42.710;27.258;2023-12-28T02:06:55;5.97;;;3.83;;
12348;SDS011;5974;42.710;27.258;2023-12-28T02:09:24;7.17;;;4.37;;
12348;SDS011;5974;42.710;27.258;2023-12-28T02:11:51;4.20;;;3.37;;
12348;SDS011;5974;42.710;27.258;2023-12-28T02:14:18;4.80;;;3.10;;
12348;SDS011;5974;42.710;27.258;2023-12-28T02:16:46;5.40;;;3.07;;
12348;SDS011;5974;42.710;27.258;2023-12-28T02:19:18;2.83;;;2.37;;
12348;SDS011;5974;42.710;27.258;2023-12-28T02:21:52;3.47;;;2.47;;
12348;SDS011;5974;42.710;27.258;2023-12-28T02:24:22;5.50;;;2.80;;
12348;SDS011;5974;42.710;27.258;2023-12-28T02:26:50;4.37;;;2.80;;
12348;SDS011;5974;42.710;27.258;2023-12-28T02:29:17;4.77;;;2.70;;
12348;SDS011;5974;42.710;27.258;2023-12-28T02:31:45;3.00;;;2.70;;
12348;SDS011;5974;42.710;27.258;2023-12-28T02:34:19;3.10;;;2.30;;
12348;SDS011;5974;42.710;27.258;2023-12-28T02:36:53;2.67;;;2.47;;
12348;SDS011;5974;42.710;27.258;2023-12-28T02:39:23;4.17;;;2.70;;
12348;SDS011;5974;42.710;27.258;2023-12-28T02:41:52;3.43;;;2.20;;
12348;SDS011;5974;42.710;27.258;2023-12-28T02:44:20;5.53;;;2.60;;
12348;SDS011;5974;42.710;27.258;2023-12-28T02:46:47;4.97;;;2.40;;
12348;SDS011;5974;42.710;27.258;2023-12-28T02:49:14;2.57;;;2.37;;
12348;SDS011;5974;42.710;27.258;2023-12-28T02:51:41;2.57;;;2.37;;
12348;SDS011;5974;42.710;27.258;2023-12-28T02:54:08;2.97;;;2.67;;
12348;SDS011;5974;42.710;27.258;2023-12-28T02:56:35;3.23;;;2.13;;
12348;SDS011;5974;42.710;27.258;2023-12-28T02:59:03;4.97;;;2.33;;
12348;SDS011;5974;42.710;27.258;2023-12-28T03:01:30;4.30;;;2.40;;
12348;SDS011;5974;42.710;27.258;2023-12-28T03:03:57;2.17;;;1.93;;
12348;SDS011;5974;42.710;27.258;2023-12-28T03:06:24;2.77;;;2.37;;
12348;SDS011;5974;42.710;27.258;2023-12-28T03:08:50;2.70;;;2.00;;
12348;SDS011;5974;42.710;27.258;2023-12-28T03:11:17;2.90;;;2.17;;
12348;SDS011;5974;42.710;27.258;2023-12-28T03:13:45;3.50;;;2.30;;
12348;SDS011;5974;42.710;27.258;2023-12-28T03:16:14;2.67;;;2.10;;
12348;SDS011;5974;42.710;27.258;2023-12-28T03:18:41;2.43;;;2.20;;
12348;SDS011;5974;42.710;27.258;2023-12-28T03:21:08;2.47;;;2.13;;
12348;SDS011;5974;42.710;27.258;2023-12-28T03:23:35;3.17;;;2.10;;
12348;SDS011;5974;42.710;27.258;2023-12-28T03:26:01;2.40;;;2.20;;
12348;SDS011;5974;42.710;27.258;2023-12-28T03:28:28;3.83;;;2.20;;
12348;SDS011;5974;42.710;27.258;2023-12-28T03:30:55;2.33;;;2.13;;
12348;SDS011;5974;42.710;27.258;2023-12-28T03:33:24;3.47;;;2.43;;
12348;SDS011;5974;42.710;27.258;2023-12-28T03:35:52;2.80;;;2.33;;
12348;SDS011;5974;42.710;27.258;2023-12-28T03:38:19;2.20;;;2.00;;
12348;SDS011;5974;42.710;27.258;2023-12-28T03:40:46;2.40;;;2.20;;
12348;SDS011;5974;42.710;27.258;2023-12-28T03:43:14;2.37;;;2.17;;
12348;SDS011;5974;42.710;27.258;2023-12-28T03:45:41;3.13;;;2.30;;
12348;SDS011;5974;42.710;27.258;2023-12-28T03:48:08;3.70;;;2.47;;
12348;SDS011;5974;42.710;27.258;2023-12-28T03:50:36;4.00;;;2.57;;
12348;SDS011;5974;42.710;27.258;2023-12-28T03:53:03;4.63;;;2.53;;
12348;SDS011;5974;42.710;27.258;2023-12-28T03:55:29;3.33;;;2.40;;
12348;SDS011;5974;42.710;27.258;2023-12-28T03:57:56;2.70;;;2.10;;
12348;SDS011;5974;42.710;27.258;2023-12-28T04:00:23;2.40;;;2.20;;
12348;SDS011;5974;42.710;27.258;2023-12-28T04:02:50;3.77;;;2.43;;
12348;SDS011;5974;42.710;27.258;2023-12-28T04:05:17;2.60;;;2.37;;
12348;SDS011;5974;42.710;27.258;2023-12-28T04:07:46;2.30;;;2.00;;
12348;SDS011;5974;42.710;27.258;2023-12-28T04:10:12;2.23;;;2.03;;
12348;SDS011;5974;42.710;27.258;2023-12-28T04:12:40;2.40;;;2.20;;
12348;SDS011;5974;42.710;27.258;2023-12-28T04:15:07;6.43;;;2.20;;
12348;SDS011;5974;42.710;27.258;2023-12-28T04:17:34;7.00;;;2.30;;
12348;SDS011;5974;42.710;27.258;2023-12-28T04:20:00;4.17;;;2.30;;
12348;SDS011;5974;42.710;27.258;2023-12-28T04:22:28;2.93;;;2.37;;
12348;SDS011;5974;42.710;27.258;2023-12-28T04:24:56;2.47;;;2.27;;
12348;SDS011;5974;42.710;27.258;2023-12-28T04:27:23;2.20;;;2.00;;
12348;SDS011;5974;42.710;27.258;2023-12-28T04:29:50;2.20;;;2.10;;
12348;SDS011;5974;42.710;27.258;2023-12-28T04:32:17;2.70;;;2.23;;
12348;SDS011;5974;42.710;27.258;2023-12-28T04:34:43;3.20;;;2.20;;
12348;SDS011;5974;42.710;27.258;2023-12-28T04:37:10;2.30;;;2.10;;
12348;SDS011;5974;42.710;27.258;2023-12-28T04:39:37;2.47;;;2.00;;
12348;SDS011;5974;42.710;27.258;2023-12-28T04:42:05;4.60;;;2.47;;
12348;SDS011;5974;42.710;27.258;2023-12-28T04:44:32;2.93;;;2.40;;
12348;SDS011;5974;42.710;27.258;2023-12-28T04:47:03;4.57;;;2.17;;
12348;SDS011;5974;42.710;27.258;2023-12-28T04:49:30;3.00;;;2.20;;
12348;SDS011;5974;42.710;27.258;2023-12-28T04:51:57;6.20;;;2.17;;
12348;SDS011;5974;42.710;27.258;2023-12-28T04:54:25;3.40;;;2.40;;
12348;SDS011;5974;42.710;27.258;2023-12-28T04:56:52;2.07;;;1.90;;
12348;SDS011;5974;42.710;27.258;2023-12-28T04:59:20;2.77;;;2.30;;
12348;SDS011;5974;42.710;27.258;2023-12-28T05:01:47;2.53;;;2.33;;
12348;SDS011;5974;42.710;27.258;2023-12-28T05:04:14;3.00;;;2.30;;
12348;SDS011;5974;42.710;27.258;2023-12-28T05:06:41;5.60;;;2.53;;
12348;SDS011;5974;42.710;27.258;2023-12-28T05:09:07;3.90;;;2.40;;
12348;SDS011;5974;42.710;27.258;2023-12-28T05:11:34;4.90;;;2.60;;
12348;SDS011;5974;42.710;27.258;2023-12-28T05:14:01;3.80;;;2.23;;
12348;SDS011;5974;42.710;27.258;2023-12-28T05:16:29;2.23;;;2.00;;
12348;SDS011;5974;42.710;27.258;2023-12-28T05:18:56;2.37;;;2.17;;
12348;SDS011;5974;42.710;27.258;2023-12-28T05:21:23;2.43;;;2.20;;
12348;SDS011;5974;42.710;27.258;2023-12-28T05:23:49;2.33;;;2.13;;
12348;SDS011;5974;42.710;27.258;2023-12-28T05:26:16;2.63;;;2.23;;
12348;SDS011;5974;42.710;27.258;2023-12-28T05:28:43;4.47;;;2.60;;
12348;SDS011;5974;42.710;27.258;2023-12-28T05:31:09;3.37;;;2.50;;
12348;SDS011;5974;42.710;27.258;2023-12-28T05:33:39;4.97;;;2.70;;
12348;SDS011;5974;42.710;27.258;2023-12-28T05:36:06;6.90;;;2.97;;
12348;SDS011;5974;42.710;27.258;2023-12-28T05:38:33;8.40;;;2.80;;
12348;SDS011;5974;42.710;27.258;2023-12-28T05:41:00;3.87;;;2.53;;
12348;SDS011;5974;42.710;27.258;2023-12-28T05:43:27;6.80;;;2.60;;
12348;SDS011;5974;42.710;27.258;2023-12-28T05:45:53;5.47;;;2.87;;
12348;SDS011;5974;42.710;27.258;2023-12-28T05:48:20;9.27;;;2.73;;
12348;SDS011;5974;42.710;27.258;2023-12-28T05:50:48;4.20;;;3.03;;
12348;SDS011;5974;42.710;27.258;2023-12-28T05:53:15;3.33;;;2.90;;
12348;SDS011;5974;42.710;27.258;2023-12-28T05:55:42;6.17;;;3.13;;
12348;SDS011;5974;42.710;27.258;2023-12-28T05:58:09;3.63;;;3.23;;
12348;SDS011;5974;42.710;27.258;2023-12-28T06:00:36;5.90;;;4.97;;
12348;SDS011;5974;42.710;27.258;2023-12-28T06:03:04;9.00;;;6.20;;
12348;SDS011;5974;42.710;27.258;2023-12-28T06:05:30;8.17;;;4.47;;
12348;SDS011;5974;42.710;27.258;2023-12-28T06:07:59;5.90;;;4.00;;
12348;SDS011;5974;42.710;27.258;2023-12-28T06:10:26;6.90;;;4.00;;
12348;SDS011;5974;42.710;27.258;2023-12-28T06:12:52;19.90;;;10.10;;
12348;SDS011;5974;42.710;27.258;2023-12-28T06:15:19;6.73;;;4.67;;
12348;SDS011;5974;42.710;27.258;2023-12-28T06:17:46;7.03;;;5.00;;
12348;SDS011;5974;42.710;27.258;2023-12-28T06:20:13;7.43;;;6.40;;
12348;SDS011;5974;42.710;27.258;2023-12-28T06:22:39;14.20;;;6.10;;
12348;SDS011;5974;42.710;27.258;2023-12-28T06:25:08;4.97;;;4.10;;
12348;SDS011;5974;42.710;27.258;2023-12-28T06:27:37;8.00;;;5.17;;
12348;SDS011;5974;42.710;27.258;2023-12-28T06:30:04;7.33;;;4.50;;
12348;SDS011;5974;42.710;27.258;2023-12-28T06:32:32;6.70;;;4.57;;
12348;SDS011;5974;42.710;27.258;2023-12-28T06:34:59;7.70;;;6.87;;
12348;SDS011;5974;42.710;27.258;2023-12-28T06:37:25;11.47;;;7.03;;
12348;SDS011;5974;42.710;27.258;2023-12-28T06:39:52;13.37;;;8.33;;
12348;SDS011;5974;42.710;27.258;2023-12-28T06:42:20;13.50;;;7.50;;
12348;SDS011;5974;42.710;27.258;2023-12-28T06:44:47;7.20;;;5.60;;
12348;SDS011;5974;42.710;27.258;2023-12-28T06:47:14;11.77;;;8.93;;
12348;SDS011;5974;42.710;27.258;2023-12-28T06:49:41;5.43;;;4.43;;
12348;SDS011;5974;42.710;27.258;2023-12-28T06:52:07;4.13;;;3.73;;
12348;SDS011;5974;42.710;27.258;2023-12-28T06:54:34;6.77;;;3.67;;
12348;SDS011;5974;42.710;27.258;2023-12-28T06:57:01;6.60;;;3.63;;
12348;SDS011;5974;42.710;27.258;2023-12-28T06:59:29;6.30;;;4.03;;
12348;SDS011;5974;42.710;27.258;2023-12-28T07:01:56;5.83;;;4.20;;
12348;SDS011;5974;42.710;27.258;2023-12-28T07:04:23;9.43;;;4.20;;
12348;SDS011;5974;42.710;27.258;2023-12-28T07:06:50;6.20;;;4.80;;
12348;SDS011;5974;42.710;27.258;2023-12-28T07:09:17;5.60;;;5.10;;
12348;SDS011;5974;42.710;27.258;2023-12-28T07:11:44;7.83;;;5.20;;
12348;SDS011;5974;42.710;27.258;2023-12-28T07:14:11;6.87;;;6.17;;
12348;SDS011;5974;42.710;27.258;2023-12-28T07:16:39;13.83;;;9.73;;
12348;SDS011;5974;42.710;27.258;2023-12-28T07:19:05;11.40;;;7.10;;
12348;SDS011;5974;42.710;27.258;2023-12-28T07:21:32;33.33;;;29.37;;
12348;SDS011;5974;42.710;27.258;2023-12-28T07:23:58;6.17;;;5.27;;
12348;SDS011;5974;42.710;27.258;2023-12-28T07:26:25;6.57;;;4.57;;
12348;SDS011;5974;42.710;27.258;2023-12-28T07:28:52;6.53;;;4.87;;
12348;SDS011;5974;42.710;27.258;2023-12-28T07:31:23;7.13;;;5.40;;
12348;SDS011;5974;42.710;27.258;2023-12-28T07:33:51;10.67;;;5.50;;
12348;SDS011;5974;42.710;27.258;2023-12-28T07:36:18;12.33;;;7.57;;
12348;SDS011;5974;42.710;27.258;2023-12-28T07:38:45;9.87;;;6.70;;
12348;SDS011;5974;42.710;27.258;2023-12-28T07:41:12;19.97;;;16.10;;
12348;SDS011;5974;42.710;27.258;2023-12-28T07:43:39;28.97;;;20.37;;
12348;SDS011;5974;42.710;27.258;2023-12-28T07:46:05;37.77;;;25.50;;
12348;SDS011;5974;42.710;27.258;2023-12-28T07:48:32;32.20;;;23.87;;
12348;SDS011;5974;42.710;27.258;2023-12-28T07:51:04;40.80;;;27.57;;
12348;SDS011;5974;42.710;27.258;2023-12-28T07:53:32;38.87;;;25.67;;
12348;SDS011;5974;42.710;27.258;2023-12-28T07:55:58;39.83;;;26.90;;
12348;SDS011;5974;42.710;27.258;2023-12-28T07:58:25;34.90;;;24.97;;
12348;SDS011;5974;42.710;27.258;2023-12-28T08:00:52;37.37;;;25.43;;
12348;SDS011;5974;42.710;27.258;2023-12-28T08:03:19;30.37;;;23.13;;
12348;SDS011;5974;42.710;27.258;2023-12-28T08:05:45;34.27;;;19.73;;
12348;SDS011;5974;42.710;27.258;2023-12-28T08:08:14;25.33;;;18.53;;
12348;SDS011;5974;42.710;27.258;2023-12-28T08:10:40;26.37;;;17.33;;
12348;SDS011;5974;42.710;27.258;2023-12-28T08:13:07;37.33;;;20.00;;
12348;SDS011;5974;42.710;27.258;2023-12-28T08:15:34;33.83;;;21.20;;
12348;SDS011;5974;42.710;27.258;2023-12-28T08:18:01;28.60;;;15.90;;
12348;SDS011;5974;42.710;27.258;2023-12-28T08:20:28;25.53;;;15.53;;
12348;SDS011;5974;42.710;27.258;2023-12-28T08:22:54;28.10;;;16.60;;
12348;SDS011;5974;42.710;27.258;2023-12-28T08:25:23;29.90;;;19.30;;
12348;SDS011;5974;42.710;27.258;2023-12-28T08:27:49;37.33;;;23.27;;
12348;SDS011;5974;42.710;27.258;2023-12-28T08:30:16;26.67;;;18.27;;
12348;SDS011;5974;42.710;27.258;2023-12-28T08:32:43;29.17;;;18.93;;
12348;SDS011;5974;42.710;27.258;2023-12-28T08:35:10;33.63;;;21.97;;
12348;SDS011;5974;42.710;27.258;2023-12-28T08:37:37;27.93;;;16.30;;
12348;SDS011;5974;42.710;27.258;2023-12-28T08:40:04;16.57;;;11.03;;
12348;SDS011;5974;42.710;27.258;2023-12-28T08:42:33;17.37;;;9.93;;
12348;SDS011;5974;42.710;27.258;2023-12-28T08:45:00;14.57;;;7.90;;
12348;SDS011;5974;42.710;27.258;2023-12-28T08:47:26;17.07;;;9.30;;
12348;SDS011;5974;42.710;27.258;2023-12-28T08:49:53;17.70;;;10.30;;
12348;SDS011;5974;42.710;27.258;2023-12-28T08:52:20;12.80;;;7.37;;
12348;SDS011;5974;42.710;27.258;2023-12-28T08:54:47;19.50;;;11.50;;
12348;SDS011;5974;42.710;27.258;2023-12-28T08:57:13;17.57;;;10.70;;
12348;SDS011;5974;42.710;27.258;2023-12-28T08:59:42;9.33;;;7.00;;
12348;SDS011;5974;42.710;27.258;2023-12-28T09:02:08;17.60;;;10.37;;
12348;SDS011;5974;42.710;27.258;2023-12-28T09:04:34;16.97;;;12.00;;
12348;SDS011;5974;42.710;27.258;2023-12-28T09:07:01;23.40;;;15.40;;
12348;SDS011;5974;42.710;27.258;2023-12-28T09:09:28;15.83;;;11.47;;
12348;SDS011;5974;42.710;27.258;2023-12-28T09:11:55;11.83;;;9.73;;
12348;SDS011;5974;42.710;27.258;2023-12-28T09:14:22;15.10;;;9.43;;
12348;SDS011;5974;42.710;27.258;2023-12-28T09:16:50;13.67;;;8.50;;
12348;SDS011;5974;42.710;27.258;2023-12-28T09:19:17;16.77;;;8.20;;
12348;SDS011;5974;42.710;27.258;2023-12-28T09:21:43;13.30;;;7.13;;
12348;SDS011;5974;42.710;27.258;2023-12-28T09:24:10;6.37;;;4.77;;
12348;SDS011;5974;42.710;27.258;2023-12-28T09:26:37;8.70;;;4.83;;
12348;SDS011;5974;42.710;27.258;2023-12-28T09:29:03;9.87;;;4.57;;
12348;SDS011;5974;42.710;27.258;2023-12-28T09:31:30;12.40;;;4.47;;
12348;SDS011;5974;42.710;27.258;2023-12-28T09:33:58;12.53;;;6.10;;
12348;SDS011;5974;42.710;27.258;2023-12-28T09:36:25;8.20;;;4.10;;
12348;SDS011;5974;42.710;27.258;2023-12-28T09:38:52;7.80;;;4.87;;
12348;SDS011;5974;42.710;27.258;2023-12-28T09:41:19;10.87;;;4.23;;
12348;SDS011;5974;42.710;27.258;2023-12-28T09:43:51;7.57;;;4.77;;
12348;SDS011;5974;42.710;27.258;2023-12-28T09:46:20;6.93;;;4.40;;
12348;SDS011;5974;42.710;27.258;2023-12-28T09:48:47;7.60;;;5.97;;
12348;SDS011;5974;42.710;27.258;2023-12-28T09:51:15;7.70;;;5.87;;
12348;SDS011;5974;42.710;27.258;2023-12-28T09:53:42;7.73;;;5.07;;
12348;SDS011;5974;42.710;27.258;2023-12-28T09:56:09;11.13;;;5.80;;
12348;SDS011;5974;42.710;27.258;2023-12-28T09:58:36;8.90;;;4.77;;
12348;SDS011;5974;42.710;27.258;2023-12-28T10:01:03;7.73;;;5.37;;
12348;SDS011;5974;42.710;27.258;2023-12-28T10:03:32;5.17;;;3.87;;
12348;SDS011;5974;42.710;27.258;2023-12-28T10:05:59;9.43;;;5.33;;
12348;SDS011;5974;42.710;27.258;2023-12-28T10:08:27;5.07;;;3.63;;
12348;SDS011;5974;42.710;27.258;2023-12-28T10:10:54;7.07;;;4.00;;
12348;SDS011;5974;42.710;27.258;2023-12-28T10:13:24;7.40;;;3.83;;
12348;SDS011;5974;42.710;27.258;2023-12-28T10:15:51;7.07;;;3.40;;
12348;SDS011;5974;42.710;27.258;2023-12-28T10:18:18;4.43;;;3.57;;
12348;SDS011;5974;42.710;27.258;2023-12-28T10:20:48;12.10;;;3.80;;
12348;SDS011;5974;42.710;27.258;2023-12-28T10:23:16;9.30;;;3.60;;
12348;SDS011;5974;42.710;27.258;2023-12-28T10:25:44;5.40;;;3.80;;
12348;SDS011;5974;42.710;27.258;2023-12-28T10:28:11;4.77;;;3.80;;
12348;SDS011;5974;42.710;27.258;2023-12-28T10:30:38;7.00;;;4.33;;
12348;SDS011;5974;42.710;27.258;2023-12-28T10:33:06;5.37;;;3.77;;
12348;SDS011;5974;42.710;27.258;2023-12-28T10:35:33;7.13;;;4.47;;
12348;SDS011;5974;42.710;27.258;2023-12-28T10:38:00;10.00;;;4.73;;
12348;SDS011;5974;42.710;27.258;2023-12-28T10:40:28;8.50;;;4.10;;
12348;SDS011;5974;42.710;27.258;2023-12-28T10:42:58;9.13;;;4.43;;
12348;SDS011;5974;42.710;27.258;2023-12-28T10:45:28;4.60;;;2.80;;
12348;SDS011;5974;42.710;27.258;2023-12-28T10:48:00;5.13;;;3.50;;
12348;SDS011;5974;42.710;27.258;2023-12-28T10:50:34;7.13;;;4.23;;
12348;SDS011;5974;42.710;27.258;2023-12-28T10:53:20;8.93;;;4.00;;
12348;SDS011;5974;42.710;27.258;2023-12-28T10:55:59;7.63;;;3.80;;
12348;SDS011;5974;42.710;27.258;2023-12-28T10:58:38;9.83;;;3.50;;
12348;SDS011;5974;42.710;27.258;2023-12-28T11:01:13;4.53;;;2.73;;
12348;SDS011;5974;42.710;27.258;2023-12-28T11:03:48;5.73;;;3.07;;
12348;SDS011;5974;42.710;27.258;2023-12-28T11:06:23;4.47;;;3.13;;
12348;SDS011;5974;42.710;27.258;2023-12-28T11:08:52;5.33;;;4.03;;
12348;SDS011;5974;42.710;27.258;2023-12-28T11:11:20;5.13;;;3.83;;
12348;SDS011;5974;42.710;27.258;2023-12-28T11:13:49;4.20;;;3.10;;
12348;SDS011;5974;42.710;27.258;2023-12-28T11:16:17;4.17;;;3.70;;
12348;SDS011;5974;42.710;27.258;2023-12-28T11:18:53;3.10;;;2.50;;
12348;SDS011;5974;42.710;27.258;2023-12-28T11:21:20;4.87;;;3.13;;
12348;SDS011;5974;42.710;27.258;2023-12-28T11:23:49;5.37;;;3.20;;
12348;SDS011;5974;42.710;27.258;2023-12-28T11:26:16;3.27;;;2.93;;
12348;SDS011;5974;42.710;27.258;2023-12-28T11:28:43;6.10;;;3.10;;
12348;SDS011;5974;42.710;27.258;2023-12-28T11:31:10;7.53;;;4.10;;
12348;SDS011;5974;42.710;27.258;2023-12-28T11:33:42;4.50;;;2.60;;
12348;SDS011;5974;42.710;27.258;2023-12-28T11:36:11;6.97;;;3.47;;
12348;SDS011;5974;42.710;27.258;2023-12-28T11:38:45;5.13;;;2.97;;
12348;SDS011;5974;42.710;27.258;2023-12-28T11:41:16;7.33;;;3.17;;
12348;SDS011;5974;42.710;27.258;2023-12-28T11:43:43;6.30;;;3.10;;
12348;SDS011;5974;42.710;27.258;2023-12-28T11:46:20;8.40;;;3.10;;
12348;SDS011;5974;42.710;27.258;2023-12-28T11:48:47;6.83;;;3.40;;
12348;SDS011;5974;42.710;27.258;2023-12-28T11:51:15;2.97;;;2.60;;
12348;SDS011;5974;42.710;27.258;2023-12-28T11:53:43;3.67;;;3.30;;
12348;SDS011;5974;42.710;27.258;2023-12-28T11:56:15;6.13;;;3.50;;
12348;SDS011;5974;42.710;27.258;2023-12-28T11:58:42;4.47;;;2.97;;
12348;SDS011;5974;42.710;27.258;2023-12-28T12:01:11;4.47;;;3.33;;
12348;SDS011;5974;42.710;27.258;2023-12-28T12:03:38;16.20;;;4.00;;
12348;SDS011;5974;42.710;27.258;2023-12-28T12:06:04;6.93;;;3.77;;
12348;SDS011;5974;42.710;27.258;2023-12-28T12:08:33;5.97;;;3.23;;
12348;SDS011;5974;42.710;27.258;2023-12-28T12:11:00;5.53;;;3.23;;
12348;SDS011;5974;42.710;27.258;2023-12-28T12:13:29;6.80;;;3.50;;
12348;SDS011;5974;42.710;27.258;2023-12-28T12:15:56;4.67;;;3.67;;
12348;SDS011;5974;42.710;27.258;2023-12-28T12:18:23;5.23;;;3.17;;
12348;SDS011;5974;42.710;27.258;2023-12-28T12:20:49;6.53;;;3.77;;
12348;SDS011;5974;42.710;27.258;2023-12-28T12:23:16;5.77;;;3.40;;
12348;SDS011;5974;42.710;27.258;2023-12-28T12:25:44;7.23;;;3.67;;
12348;SDS011;5974;42.710;27.258;2023-12-28T12:28:11;8.57;;;4.23;;
12348;SDS011;5974;42.710;27.258;2023-12-28T12:30:38;4.23;;;3.03;;
12348;SDS011;5974;42.710;27.258;2023-12-28T12:33:05;6.27;;;2.80;;
12348;SDS011;5974;42.710;27.258;2023-12-28T12:35:34;4.43;;;2.60;;
12348;SDS011;5974;42.710;27.258;2023-12-28T12:38:01;7.87;;;3.40;;
12348;SDS011;5974;42.710;27.258;2023-12-28T12:40:29;5.20;;;2.80;;
12348;SDS011;5974;42.710;27.258;2023-12-28T12:42:58;4.97;;;2.87;;
12348;SDS011;5974;42.710;27.258;2023-12-28T12:45:26;4.67;;;2.80;;
12348;SDS011;5974;42.710;27.258;2023-12-28T12:47:53;5.13;;;3.07;;
12348;SDS011;5974;42.710;27.258;2023-12-28T12:50:20;6.70;;;3.50;;
12348;SDS011;5974;42.710;27.258;2023-12-28T12:52:47;7.30;;;3.30;;
12348;SDS011;5974;42.710;27.258;2023-12-28T12:55:14;5.50;;;3.23;;
12348;SDS011;5974;42.710;27.258;2023-12-28T12:57:41;7.17;;;3.43;;
12348;SDS011;5974;42.710;27.258;2023-12-28T13:00:10;4.80;;;3.97;;
12348;SDS011;5974;42.710;27.258;2023-12-28T13:02:38;4.87;;;3.47;;
12348;SDS011;5974;42.710;27.258;2023-12-28T13:05:05;4.80;;;2.90;;
12348;SDS011;5974;42.710;27.258;2023-12-28T13:07:33;5.73;;;2.97;;
12348;SDS011;5974;42.710;27.258;2023-12-28T13:10:00;10.83;;;3.17;;
12348;SDS011;5974;42.710;27.258;2023-12-28T13:12:27;6.80;;;3.73;;
12348;SDS011;5974;42.710;27.258;2023-12-28T13:14:54;5.40;;;3.30;;
12348;SDS011;5974;42.710;27.258;2023-12-28T13:17:22;5.83;;;3.23;;
12348;SDS011;5974;42.710;27.258;2023-12-28T13:19:49;5.60;;;3.77;;
12348;SDS011;5974;42.710;27.258;2023-12-28T13:22:15;5.23;;;4.10;;
12348;SDS011;5974;42.710;27.258;2023-12-28T13:24:42;4.57;;;3.70;;
12348;SDS011;5974;42.710;27.258;2023-12-28T13:27:09;7.30;;;4.10;;
12348;SDS011;5974;42.710;27.258;2023-12-28T13:29:36;5.40;;;4.53;;
12348;SDS011;5974;42.710;27.258;2023-12-28T13:32:03;4.27;;;3.57;;
12348;SDS011;5974;42.710;27.258;2023-12-28T13:34:31;9.90;;;4.10;;
12348;SDS011;5974;42.710;27.258;2023-12-28T13:36:58;12.73;;;4.27;;
12348;SDS011;5974;42.710;27.258;2023-12-28T13:39:26;10.90;;;5.03;;
12348;SDS011;5974;42.710;27.258;2023-12-28T13:41:53;12.33;;;5.23;;
12348;SDS011;5974;42.710;27.258;2023-12-28T13:44:20;6.70;;;4.60;;
12348;SDS011;5974;42.710;27.258;2023-12-28T13:46:47;9.57;;;4.90;;
12348;SDS011;5974;42.710;27.258;2023-12-28T13:49:14;10.70;;;5.00;;
12348;SDS011;5974;42.710;27.258;2023-12-28T13:51:42;16.33;;;4.40;;
12348;SDS011;5974;42.710;27.258;2023-12-28T13:54:11;10.27;;;5.27;;
12348;SDS011;5974;42.710;27.258;2023-12-28T13:56:38;11.83;;;5.40;;
12348;SDS011;5974;42.710;27.258;2023-12-28T13:59:05;7.90;;;4.93;;
12348;SDS011;5974;42.710;27.258;2023-12-28T14:01:32;7.80;;;5.47;;
12348;SDS011;5974;42.710;27.258;2023-12-28T14:04:00;12.20;;;5.80;;
12348;SDS011;5974;42.710;27.258;2023-12-28T14:06:28;10.93;;;5.90;;
12348;SDS011;5974;42.710;27.258;2023-12-28T14:08:56;8.53;;;5.57;;
12348;SDS011;5974;42.710;27.258;2023-12-28T14:11:23;7.80;;;5.60;;
12348;SDS011;5974;42.710;27.258;2023-12-28T14:13:50;8.80;;;4.97;;
12348;SDS011;5974;42.710;27.258;2023-12-28T14:16:17;10.90;;;5.00;;
12348;SDS011;5974;42.710;27.258;2023-12-28T14:18:45;12.57;;;5.93;;
12348;SDS011;5974;42.710;27.258;2023-12-28T14:21:13;15.97;;;8.00;;
12348;SDS011;5974;42.710;27.258;2023-12-28T14:23:41;19.63;;;10.63;;
12348;SDS011;5974;42.710;27.258;2023-12-28T14:26:11;9.80;;;6.50;;
12348;SDS011;5974;42.710;27.258;2023-12-28T14:28:39;18.57;;;9.33;;
12348;SDS011;5974;42.710;27.258;2023-12-28T14:31:07;37.63;;;11.13;;
12348;SDS011;5974;42.710;27.258;2023-12-28T14:33:35;30.83;;;17.80;;
12348;SDS011;5974;42.710;27.258;2023-12-28T14:36:04;27.00;;;12.50;;
12348;SDS011;5974;42.710;27.258;2023-12-28T14:38:37;35.60;;;16.83;;
12348;SDS011;5974;42.710;27.258;2023-12-28T14:41:03;31.10;;;14.70;;
12348;SDS011;5974;42.710;27.258;2023-12-28T14:43:32;34.10;;;15.90;;
12348;SDS011;5974;42.710;27.258;2023-12-28T14:45:58;29.07;;;17.03;;